Kyoto Maru — JD3149 — position and weather

sailwx.info

Track history (hours):
 
Tides and Currents Weather Stations Pressure Air Temp Water Temp Dewpoint Dewpoint Depression Visibility Wind Speed Wind Dir Waves Ship Positions

Kyoto Maru

Last reported at 2014-Nov-01 08:34 UTC. Time now 2014-Nov-01 09:12 UTC.
Position N 35°27' E 139°39'.

Length 34 m; draft 3.8 m.

Type: Tug. MMSI: 431002219.

Date/timePositionNaut miles runAvg speedWind from/ knotsBaromVisibWave heightAir tempDewpointWater temp
2014-Nov-01 08:34N 35°27' E 139°39'0 0.0
2014-Nov-01 07:33N 35°27' E 139°39'0 0.0
2014-Nov-01 06:33N 35°27' E 139°39'0 0.0
2014-Nov-01 05:33N 35°27' E 139°39'0 0.0
2014-Nov-01 04:33N 35°27' E 139°39'0 0.0
2014-Nov-01 03:34N 35°27' E 139°39'0 0.0
2014-Nov-01 02:34N 35°27' E 139°39'0 0.0
2014-Nov-01 01:33N 35°27' E 139°39'0 0.0
2014-Nov-01 00:34N 35°27' E 139°39'2 1.7
2014-Oct-31 23:33N 35°27' E 139°41'1 1.1
2014-Oct-31 22:33N 35°26' E 139°42'2 2.1
2014-Oct-31 21:34N 35°28' E 139°40'0 0.0
2014-Oct-31 20:34N 35°28' E 139°40'0 0.0
2014-Oct-31 19:33N 35°28' E 139°40'0 0.0
2014-Oct-31 18:33N 35°28' E 139°40'0 0.0
2014-Oct-31 17:34N 35°28' E 139°40'0 0.0
2014-Oct-31 16:34N 35°28' E 139°40'1 1.5
2014-Oct-31 15:34N 35°27' E 139°42'1 0.9
2014-Oct-31 14:33N 35°28' E 139°42'2 2.0
2014-Oct-31 13:33N 35°27' E 139°39'0 0.0
2014-Oct-31 12:33N 35°27' E 139°39'0 0.0
2014-Oct-31 11:33N 35°27' E 139°39'0 0.0
2014-Oct-31 10:33N 35°27' E 139°39'3 2.8
2014-Oct-31 09:33N 35°26' E 139°43'1 0.7
2014-Oct-31 08:33N 35°27' E 139°43'1 1.2
2014-Oct-31 07:34N 35°27' E 139°41'1 1.3
2014-Oct-31 06:33N 35°27' E 139°39'0 0.0
2014-Oct-31 05:33N 35°27' E 139°39'0 0.0
2014-Oct-31 04:34N 35°27' E 139°39'0 0.0
2014-Oct-31 03:34N 35°27' E 139°39'0 0.0
2014-Oct-31 02:33N 35°27' E 139°39'0 0.0
2014-Oct-31 01:33N 35°27' E 139°39'0 0.0
2014-Oct-31 00:33N 35°27' E 139°39'3 2.9
2014-Oct-30 23:34N 35°25' E 139°42'2 1.9
2014-Oct-30 22:34N 35°23' E 139°41'4 4.1
2014-Oct-30 21:33N 35°27' E 139°40'1 0.5
2014-Oct-30 20:34N 35°27' E 139°39'0 0.0
2014-Oct-30 19:33N 35°27' E 139°39'0 0.0
2014-Oct-30 18:34N 35°27' E 139°39'0 0.0
2014-Oct-30 17:33N 35°27' E 139°39'0 0.0
2014-Oct-30 16:34N 35°27' E 139°39'0 0.0
2014-Oct-30 15:33N 35°27' E 139°39'0 0.0
2014-Oct-30 14:33N 35°27' E 139°39'0 0.0
2014-Oct-30 13:33N 35°27' E 139°39'0 0.0
2014-Oct-30 12:33N 35°27' E 139°39'0 0.0
2014-Oct-30 11:33N 35°27' E 139°39'0 0.0
2014-Oct-30 10:33N 35°27' E 139°39'0 0.0
2014-Oct-30 09:33N 35°27' E 139°39'0 0.0
2014-Oct-30 08:33N 35°27' E 139°39'0 0.0
2014-Oct-30 07:33N 35°27' E 139°39'0 0.0
2014-Oct-30 06:33N 35°27' E 139°39'0 0.0
2014-Oct-30 05:33N 35°27' E 139°39'0 0.0
2014-Oct-30 04:34N 35°27' E 139°39'0 0.0
2014-Oct-30 03:33N 35°27' E 139°39'0 0.0
2014-Oct-30 02:33N 35°27' E 139°39'0 0.0
2014-Oct-30 01:33N 35°27' E 139°39'0 0.0
2014-Oct-30 00:33N 35°27' E 139°39'0 0.5
2014-Oct-29 23:34N 35°27' E 139°39'6 6.4
2014-Oct-29 22:33N 35°30' E 139°47'3 3.0
2014-Oct-29 21:34N 35°27' E 139°47'6 6.1
2014-Oct-29 20:33N 35°27' E 139°39'0 0.0
2014-Oct-29 19:34N 35°27' E 139°39'0 0.0
2014-Oct-29 18:34N 35°27' E 139°39'0 0.0
2014-Oct-29 17:34N 35°27' E 139°39'0 0.0
2014-Oct-29 16:34N 35°27' E 139°39'0 0.0
2014-Oct-29 15:33N 35°27' E 139°39'0 0.0
2014-Oct-29 14:33N 35°27' E 139°39'0 0.0
2014-Oct-29 13:33N 35°27' E 139°39'0 0.0
2014-Oct-29 12:33N 35°27' E 139°39'0 0.0
2014-Oct-29 11:33N 35°27' E 139°39'0 0.0
2014-Oct-29 10:34N 35°27' E 139°39'0 0.0
2014-Oct-29 09:33N 35°27' E 139°39'0 0.0
2014-Oct-29 08:33N 35°27' E 139°39'1 0.5
2014-Oct-29 07:33N 35°27' E 139°40'6 5.5
2014-Oct-29 06:31N 35°30' E 139°46'1 0.6
2014-Oct-29 05:28N 35°30' E 139°47'0 0.0
2014-Oct-29 04:33N 35°29' E 139°47'0 0.0
2014-Oct-29 03:31N 35°29' E 139°47'0 0.3
2014-Oct-29 02:27N 35°29' E 139°47'0 0.2
2014-Oct-29 01:12N 35°29' E 139°47'2 2.9
2014-Oct-29 00:33N 35°27' E 139°46'3 2.9
2014-Oct-28 23:34N 35°30' E 139°48'3 2.9
2014-Oct-28 22:33N 35°30' E 139°44'5 4.9
2014-Oct-28 21:33N 35°27' E 139°39'0 0.0
2014-Oct-28 20:33N 35°27' E 139°39'0 0.0
2014-Oct-28 19:33N 35°27' E 139°39'0 0.0
2014-Oct-28 18:34N 35°27' E 139°39'0 0.0
2014-Oct-28 17:33N 35°27' E 139°39'0 0.0
2014-Oct-28 16:33N 35°27' E 139°39'0 0.0
2014-Oct-28 15:34N 35°27' E 139°39'0 0.0
2014-Oct-28 14:34N 35°27' E 139°39'0 0.0
2014-Oct-28 13:34N 35°27' E 139°39'0 0.0
2014-Oct-28 12:33N 35°27' E 139°39'0 0.0
2014-Oct-28 11:33N 35°27' E 139°39'0 0.0
2014-Oct-28 10:34N 35°27' E 139°39'0 0.0
2014-Oct-28 09:33N 35°27' E 139°39'0 0.0
2014-Oct-28 08:33N 35°27' E 139°39'0 0.0
2014-Oct-28 07:33N 35°27' E 139°39'1 1.2
2014-Oct-28 06:33N 35°28' E 139°40'0 0.0
2014-Oct-28 05:33N 35°28' E 139°40'0 0.0
2014-Oct-28 04:33N 35°28' E 139°40'0 0.0
2014-Oct-28 03:33N 35°28' E 139°40'0 0.0
2014-Oct-28 02:33N 35°28' E 139°40'5 4.1
2014-Oct-28 01:21N 35°30' E 139°46'2 2.7
2014-Oct-28 00:32N 35°27' E 139°46'2 2.2
2014-Oct-27 23:33N 35°28' E 139°43'2 2.0
2014-Oct-27 22:34N 35°28' E 139°41'3 2.8
2014-Oct-27 21:34N 35°26' E 139°43'3 3.4
2014-Oct-27 20:33N 35°27' E 139°39'0 0.0
2014-Oct-27 19:33N 35°27' E 139°39'0 0.0
2014-Oct-27 18:34N 35°27' E 139°39'0 0.0
2014-Oct-27 17:33N 35°27' E 139°39'0 0.0
2014-Oct-27 16:34N 35°27' E 139°39'0 0.0
2014-Oct-27 15:34N 35°27' E 139°39'0 0.0
2014-Oct-27 14:33N 35°27' E 139°39'0 0.0
2014-Oct-27 13:33N 35°27' E 139°39'0 0.0
2014-Oct-27 12:34N 35°27' E 139°39'0 0.0
2014-Oct-27 11:33N 35°27' E 139°39'1 0.8
2014-Oct-27 10:33N 35°27' E 139°40'1 1.3
2014-Oct-27 09:34N 35°28' E 139°39'3 2.5
2014-Oct-27 08:34N 35°27' E 139°41'1 0.6
2014-Oct-27 07:33N 35°27' E 139°41'1 1.1
2014-Oct-27 06:33N 35°27' E 139°42'2 2.4
2014-Oct-27 05:33N 35°28' E 139°45'1 1.0
2014-Oct-27 04:33N 35°28' E 139°44'2 1.6
2014-Oct-27 03:33N 35°28' E 139°42'2 2.0
2014-Oct-27 02:34N 35°27' E 139°39'0 0.0
2014-Oct-27 01:34N 35°27' E 139°39'0 0.0
2014-Oct-27 00:34N 35°27' E 139°39'0 0.1
2014-Oct-26 23:33N 35°27' E 139°39'1 1.4
2014-Oct-26 22:34N 35°26' E 139°41'1 1.5
2014-Oct-26 21:33N 35°27' E 139°39'0 0.2
2014-Oct-26 20:33N 35°27' E 139°39'0 0.0
2014-Oct-26 19:33N 35°27' E 139°39'0 0.0
2014-Oct-26 18:33N 35°27' E 139°39'0 0.0
2014-Oct-26 17:34N 35°27' E 139°39'0 0.0
2014-Oct-26 16:33N 35°27' E 139°39'0 0.0
2014-Oct-26 15:34N 35°27' E 139°39'0 0.0
2014-Oct-26 14:33N 35°27' E 139°39'0 0.0
2014-Oct-26 13:33N 35°27' E 139°39'0 0.0
2014-Oct-26 12:33N 35°27' E 139°39'0 0.0
2014-Oct-26 11:33N 35°27' E 139°39'0 0.0
2014-Oct-26 10:34N 35°27' E 139°39'0 0.0
2014-Oct-26 09:33N 35°27' E 139°39'0 0.0
2014-Oct-26 08:33N 35°27' E 139°39'0 0.0
2014-Oct-26 07:33N 35°27' E 139°39'0 0.0
2014-Oct-26 06:34N 35°27' E 139°39'0 0.0
2014-Oct-26 05:33N 35°27' E 139°39'0 0.0
2014-Oct-26 04:33N 35°27' E 139°39'0 0.0
2014-Oct-26 03:34N 35°27' E 139°39'0 0.0
2014-Oct-26 02:33N 35°27' E 139°39'0 0.0
2014-Oct-26 01:34N 35°27' E 139°39'0 0.0
2014-Oct-26 00:34N 35°27' E 139°39'0 0.4
2014-Oct-25 23:34N 35°27' E 139°39'3 2.7
2014-Oct-25 22:34N 35°28' E 139°43'1 0.8
2014-Oct-25 21:33N 35°27' E 139°43'0 0.0
2014-Oct-25 20:34N 35°27' E 139°43'0 0.0
2014-Oct-25 19:33N 35°27' E 139°43'0 0.0
2014-Oct-25 18:34N 35°27' E 139°43'0 0.0
2014-Oct-25 17:34N 35°27' E 139°43'0 0.0
2014-Oct-25 16:33N 35°27' E 139°43'0 0.0
2014-Oct-25 15:33N 35°27' E 139°43'2 1.6
2014-Oct-25 14:33N 35°26' E 139°41'1 1.2
2014-Oct-25 13:33N 35°27' E 139°42'0 0.0
2014-Oct-25 12:34N 35°27' E 139°42'1 0.7
2014-Oct-25 11:34N 35°27' E 139°43'1 0.8
2014-Oct-25 10:33N 35°28' E 139°42'0 0.0
2014-Oct-25 09:34N 35°28' E 139°42'0 0.0
2014-Oct-25 08:33N 35°28' E 139°42'1 1.1
2014-Oct-25 07:33N 35°28' E 139°41'2 1.8
2014-Oct-25 06:33N 35°27' E 139°39'0 0.0
2014-Oct-25 05:33N 35°27' E 139°39'0 0.0
2014-Oct-25 04:33N 35°27' E 139°39'0 0.0
2014-Oct-25 03:33N 35°27' E 139°39'0 0.0
2014-Oct-25 02:34N 35°27' E 139°39'0 0.0
2014-Oct-25 01:33N 35°27' E 139°39'0 0.0
2014-Oct-25 00:33N 35°27' E 139°39'0 0.0
2014-Oct-24 23:34N 35°27' E 139°39'0 0.0
2014-Oct-24 22:34N 35°27' E 139°39'0 0.0
2014-Oct-24 21:33N 35°27' E 139°39'0 0.0
2014-Oct-24 20:34N 35°27' E 139°39'0 0.0
2014-Oct-24 19:33N 35°27' E 139°39'0 0.0
2014-Oct-24 18:34N 35°27' E 139°39'0 0.0
2014-Oct-24 17:33N 35°27' E 139°39'0 0.0
2014-Oct-24 16:34N 35°27' E 139°39'0 0.0
2014-Oct-24 15:33N 35°27' E 139°39'0 0.0
2014-Oct-24 14:33N 35°27' E 139°39'0 0.0
2014-Oct-24 13:33N 35°27' E 139°39'0 0.0
2014-Oct-24 12:33N 35°27' E 139°39'0 0.0
2014-Oct-24 11:34N 35°27' E 139°39'0 0.0
2014-Oct-24 10:33N 35°27' E 139°39'0 0.0
2014-Oct-24 09:34N 35°27' E 139°39'0 0.0
2014-Oct-24 08:33N 35°27' E 139°39'0 0.0
2014-Oct-24 07:33N 35°27' E 139°39'0 0.0
2014-Oct-24 06:33N 35°27' E 139°39'0 0.0
2014-Oct-24 05:33N 35°27' E 139°39'0 0.0
2014-Oct-24 04:33N 35°27' E 139°39'0 0.0
2014-Oct-24 03:33N 35°27' E 139°39'1 0.5
2014-Oct-24 02:34N 35°27' E 139°40'3 2.8
2014-Oct-24 01:34N 35°28' E 139°43'0 0.1
2014-Oct-24 00:33N 35°28' E 139°43'1 0.7
2014-Oct-23 23:33N 35°27' E 139°43'1 1.3
2014-Oct-23 22:33N 35°27' E 139°41'2 2.1
2014-Oct-23 21:33N 35°25' E 139°43'3 3.4
2014-Oct-23 20:33N 35°27' E 139°39'0 0.0
2014-Oct-23 19:33N 35°27' E 139°39'0 0.0
2014-Oct-23 18:34N 35°27' E 139°39'0 0.0
2014-Oct-23 17:33N 35°27' E 139°39'0 0.0
2014-Oct-23 16:34N 35°27' E 139°39'0 0.0
2014-Oct-23 15:33N 35°27' E 139°39'0 0.0
2014-Oct-23 14:34N 35°27' E 139°39'0 0.0
2014-Oct-23 13:33N 35°27' E 139°39'0 0.0
2014-Oct-23 12:34N 35°27' E 139°39'0 0.0
2014-Oct-23 11:33N 35°27' E 139°39'0 0.0
2014-Oct-23 10:33N 35°27' E 139°39'0 0.0
2014-Oct-23 09:34N 35°27' E 139°39'1 0.6
2014-Oct-23 08:34N 35°27' E 139°40'3 3.4
2014-Oct-23 07:33N 35°24' E 139°41'1 1.2
2014-Oct-23 06:33N 35°23' E 139°40'0 0.0
2014-Oct-23 05:33N 35°23' E 139°40'0 0.2
2014-Oct-23 04:33N 35°24' E 139°40'0 0.3
2014-Oct-23 03:34N 35°24' E 139°39'0 0.0
2014-Oct-23 02:33N 35°24' E 139°40'0 0.0
2014-Oct-23 01:34N 35°24' E 139°40'0 0.0
2014-Oct-23 00:33N 35°24' E 139°39'3 3.3
2014-Oct-22 23:34N 35°27' E 139°41'1 1.1
2014-Oct-22 22:34N 35°27' E 139°40'0 0.0
2014-Oct-22 21:33N 35°27' E 139°40'0 0.0
2014-Oct-22 20:33N 35°27' E 139°40'0 0.0
2014-Oct-22 19:33N 35°27' E 139°40'0 0.0
2014-Oct-22 18:33N 35°27' E 139°40'0 0.0
2014-Oct-22 17:33N 35°27' E 139°40'0 0.0
2014-Oct-22 16:34N 35°27' E 139°40'0 0.0
2014-Oct-22 15:34N 35°27' E 139°40'0 0.0
2014-Oct-22 14:33N 35°27' E 139°40'0 0.0
2014-Oct-22 13:33N 35°27' E 139°40'0 0.0
2014-Oct-22 12:33N 35°27' E 139°40'0 0.0
2014-Oct-22 11:33N 35°27' E 139°40'0 0.0
2014-Oct-22 10:33N 35°27' E 139°40'0 0.0
2014-Oct-22 09:33N 35°27' E 139°40'0 0.0
2014-Oct-22 08:34N 35°27' E 139°40'  
Track history (hours):
 
Tides and Currents Weather Stations Pressure Air Temp Water Temp Dewpoint Dewpoint Depression Visibility Wind Speed Wind Dir Waves Ship Positions

Kyoto Maru

Last reported at 2014-Nov-01 08:34 UTC. Time now 2014-Nov-01 09:12 UTC.
Position N 35°27' E 139°39'.

Length 34 m; draft 3.8 m.

Type: Tug. MMSI: 431002219.

Date/timePositionNaut miles runAvg speedWind from/ knotsBaromVisibWave heightAir tempDewpointWater temp
2014-Nov-01 08:34N 35°27' E 139°39'0 0.0
2014-Nov-01 07:33N 35°27' E 139°39'0 0.0
2014-Nov-01 06:33N 35°27' E 139°39'0 0.0
2014-Nov-01 05:33N 35°27' E 139°39'0 0.0
2014-Nov-01 04:33N 35°27' E 139°39'0 0.0
2014-Nov-01 03:34N 35°27' E 139°39'0 0.0
2014-Nov-01 02:34N 35°27' E 139°39'0 0.0
2014-Nov-01 01:33N 35°27' E 139°39'0 0.0
2014-Nov-01 00:34N 35°27' E 139°39'2 1.7
2014-Oct-31 23:33N 35°27' E 139°41'1 1.1
2014-Oct-31 22:33N 35°26' E 139°42'2 2.1
2014-Oct-31 21:34N 35°28' E 139°40'0 0.0
2014-Oct-31 20:34N 35°28' E 139°40'0 0.0
2014-Oct-31 19:33N 35°28' E 139°40'0 0.0
2014-Oct-31 18:33N 35°28' E 139°40'0 0.0
2014-Oct-31 17:34N 35°28' E 139°40'0 0.0
2014-Oct-31 16:34N 35°28' E 139°40'1 1.5
2014-Oct-31 15:34N 35°27' E 139°42'1 0.9
2014-Oct-31 14:33N 35°28' E 139°42'2 2.0
2014-Oct-31 13:33N 35°27' E 139°39'0 0.0
2014-Oct-31 12:33N 35°27' E 139°39'0 0.0
2014-Oct-31 11:33N 35°27' E 139°39'0 0.0
2014-Oct-31 10:33N 35°27' E 139°39'3 2.8
2014-Oct-31 09:33N 35°26' E 139°43'1 0.7
2014-Oct-31 08:33N 35°27' E 139°43'1 1.2
2014-Oct-31 07:34N 35°27' E 139°41'1 1.3
2014-Oct-31 06:33N 35°27' E 139°39'0 0.0
2014-Oct-31 05:33N 35°27' E 139°39'0 0.0
2014-Oct-31 04:34N 35°27' E 139°39'0 0.0
2014-Oct-31 03:34N 35°27' E 139°39'0 0.0
2014-Oct-31 02:33N 35°27' E 139°39'0 0.0
2014-Oct-31 01:33N 35°27' E 139°39'0 0.0
2014-Oct-31 00:33N 35°27' E 139°39'3 2.9
2014-Oct-30 23:34N 35°25' E 139°42'2 1.9
2014-Oct-30 22:34N 35°23' E 139°41'4 4.1
2014-Oct-30 21:33N 35°27' E 139°40'1 0.5
2014-Oct-30 20:34N 35°27' E 139°39'0 0.0
2014-Oct-30 19:33N 35°27' E 139°39'0 0.0
2014-Oct-30 18:34N 35°27' E 139°39'0 0.0
2014-Oct-30 17:33N 35°27' E 139°39'0 0.0
2014-Oct-30 16:34N 35°27' E 139°39'0 0.0
2014-Oct-30 15:33N 35°27' E 139°39'0 0.0
2014-Oct-30 14:33N 35°27' E 139°39'0 0.0
2014-Oct-30 13:33N 35°27' E 139°39'0 0.0
2014-Oct-30 12:33N 35°27' E 139°39'0 0.0
2014-Oct-30 11:33N 35°27' E 139°39'0 0.0
2014-Oct-30 10:33N 35°27' E 139°39'0 0.0
2014-Oct-30 09:33N 35°27' E 139°39'0 0.0
2014-Oct-30 08:33N 35°27' E 139°39'0 0.0
2014-Oct-30 07:33N 35°27' E 139°39'0 0.0
2014-Oct-30 06:33N 35°27' E 139°39'0 0.0
2014-Oct-30 05:33N 35°27' E 139°39'0 0.0
2014-Oct-30 04:34N 35°27' E 139°39'0 0.0
2014-Oct-30 03:33N 35°27' E 139°39'0 0.0
2014-Oct-30 02:33N 35°27' E 139°39'0 0.0
2014-Oct-30 01:33N 35°27' E 139°39'0 0.0
2014-Oct-30 00:33N 35°27' E 139°39'0 0.5
2014-Oct-29 23:34N 35°27' E 139°39'6 6.4
2014-Oct-29 22:33N 35°30' E 139°47'3 3.0
2014-Oct-29 21:34N 35°27' E 139°47'6 6.1
2014-Oct-29 20:33N 35°27' E 139°39'0 0.0
2014-Oct-29 19:34N 35°27' E 139°39'0 0.0
2014-Oct-29 18:34N 35°27' E 139°39'0 0.0
2014-Oct-29 17:34N 35°27' E 139°39'0 0.0
2014-Oct-29 16:34N 35°27' E 139°39'0 0.0
2014-Oct-29 15:33N 35°27' E 139°39'0 0.0
2014-Oct-29 14:33N 35°27' E 139°39'0 0.0
2014-Oct-29 13:33N 35°27' E 139°39'0 0.0
2014-Oct-29 12:33N 35°27' E 139°39'0 0.0
2014-Oct-29 11:33N 35°27' E 139°39'0 0.0
2014-Oct-29 10:34N 35°27' E 139°39'0 0.0
2014-Oct-29 09:33N 35°27' E 139°39'0 0.0
2014-Oct-29 08:33N 35°27' E 139°39'1 0.5
2014-Oct-29 07:33N 35°27' E 139°40'6 5.5
2014-Oct-29 06:31N 35°30' E 139°46'1 0.6
2014-Oct-29 05:28N 35°30' E 139°47'0 0.0
2014-Oct-29 04:33N 35°29' E 139°47'0 0.0
2014-Oct-29 03:31N 35°29' E 139°47'0 0.3
2014-Oct-29 02:27N 35°29' E 139°47'0 0.2
2014-Oct-29 01:12N 35°29' E 139°47'2 2.9
2014-Oct-29 00:33N 35°27' E 139°46'3 2.9
2014-Oct-28 23:34N 35°30' E 139°48'3 2.9
2014-Oct-28 22:33N 35°30' E 139°44'5 4.9
2014-Oct-28 21:33N 35°27' E 139°39'0 0.0
2014-Oct-28 20:33N 35°27' E 139°39'0 0.0
2014-Oct-28 19:33N 35°27' E 139°39'0 0.0
2014-Oct-28 18:34N 35°27' E 139°39'0 0.0
2014-Oct-28 17:33N 35°27' E 139°39'0 0.0
2014-Oct-28 16:33N 35°27' E 139°39'0 0.0
2014-Oct-28 15:34N 35°27' E 139°39'0 0.0
2014-Oct-28 14:34N 35°27' E 139°39'0 0.0
2014-Oct-28 13:34N 35°27' E 139°39'0 0.0
2014-Oct-28 12:33N 35°27' E 139°39'0 0.0
2014-Oct-28 11:33N 35°27' E 139°39'0 0.0
2014-Oct-28 10:34N 35°27' E 139°39'0 0.0
2014-Oct-28 09:33N 35°27' E 139°39'0 0.0
2014-Oct-28 08:33N 35°27' E 139°39'0 0.0
2014-Oct-28 07:33N 35°27' E 139°39'1 1.2
2014-Oct-28 06:33N 35°28' E 139°40'0 0.0
2014-Oct-28 05:33N 35°28' E 139°40'0 0.0
2014-Oct-28 04:33N 35°28' E 139°40'0 0.0
2014-Oct-28 03:33N 35°28' E 139°40'0 0.0
2014-Oct-28 02:33N 35°28' E 139°40'5 4.1
2014-Oct-28 01:21N 35°30' E 139°46'2 2.7
2014-Oct-28 00:32N 35°27' E 139°46'2 2.2
2014-Oct-27 23:33N 35°28' E 139°43'2 2.0
2014-Oct-27 22:34N 35°28' E 139°41'3 2.8
2014-Oct-27 21:34N 35°26' E 139°43'3 3.4
2014-Oct-27 20:33N 35°27' E 139°39'0 0.0
2014-Oct-27 19:33N 35°27' E 139°39'0 0.0
2014-Oct-27 18:34N 35°27' E 139°39'0 0.0
2014-Oct-27 17:33N 35°27' E 139°39'0 0.0
2014-Oct-27 16:34N 35°27' E 139°39'0 0.0
2014-Oct-27 15:34N 35°27' E 139°39'0 0.0
2014-Oct-27 14:33N 35°27' E 139°39'0 0.0
2014-Oct-27 13:33N 35°27' E 139°39'0 0.0
2014-Oct-27 12:34N 35°27' E 139°39'0 0.0
2014-Oct-27 11:33N 35°27' E 139°39'1 0.8
2014-Oct-27 10:33N 35°27' E 139°40'1 1.3
2014-Oct-27 09:34N 35°28' E 139°39'3 2.5
2014-Oct-27 08:34N 35°27' E 139°41'1 0.6
2014-Oct-27 07:33N 35°27' E 139°41'1 1.1
2014-Oct-27 06:33N 35°27' E 139°42'2 2.4
2014-Oct-27 05:33N 35°28' E 139°45'1 1.0
2014-Oct-27 04:33N 35°28' E 139°44'2 1.6
2014-Oct-27 03:33N 35°28' E 139°42'2 2.0
2014-Oct-27 02:34N 35°27' E 139°39'0 0.0
2014-Oct-27 01:34N 35°27' E 139°39'0 0.0
2014-Oct-27 00:34N 35°27' E 139°39'0 0.1
2014-Oct-26 23:33N 35°27' E 139°39'1 1.4
2014-Oct-26 22:34N 35°26' E 139°41'1 1.5
2014-Oct-26 21:33N 35°27' E 139°39'0 0.2
2014-Oct-26 20:33N 35°27' E 139°39'0 0.0
2014-Oct-26 19:33N 35°27' E 139°39'0 0.0
2014-Oct-26 18:33N 35°27' E 139°39'0 0.0
2014-Oct-26 17:34N 35°27' E 139°39'0 0.0
2014-Oct-26 16:33N 35°27' E 139°39'0 0.0
2014-Oct-26 15:34N 35°27' E 139°39'0 0.0
2014-Oct-26 14:33N 35°27' E 139°39'0 0.0
2014-Oct-26 13:33N 35°27' E 139°39'0 0.0
2014-Oct-26 12:33N 35°27' E 139°39'0 0.0
2014-Oct-26 11:33N 35°27' E 139°39'0 0.0
2014-Oct-26 10:34N 35°27' E 139°39'0 0.0
2014-Oct-26 09:33N 35°27' E 139°39'0 0.0
2014-Oct-26 08:33N 35°27' E 139°39'0 0.0
2014-Oct-26 07:33N 35°27' E 139°39'0 0.0
2014-Oct-26 06:34N 35°27' E 139°39'0 0.0
2014-Oct-26 05:33N 35°27' E 139°39'0 0.0
2014-Oct-26 04:33N 35°27' E 139°39'0 0.0
2014-Oct-26 03:34N 35°27' E 139°39'0 0.0
2014-Oct-26 02:33N 35°27' E 139°39'0 0.0
2014-Oct-26 01:34N 35°27' E 139°39'0 0.0
2014-Oct-26 00:34N 35°27' E 139°39'0 0.4
2014-Oct-25 23:34N 35°27' E 139°39'3 2.7
2014-Oct-25 22:34N 35°28' E 139°43'1 0.8
2014-Oct-25 21:33N 35°27' E 139°43'0 0.0
2014-Oct-25 20:34N 35°27' E 139°43'0 0.0
2014-Oct-25 19:33N 35°27' E 139°43'0 0.0
2014-Oct-25 18:34N 35°27' E 139°43'0 0.0
2014-Oct-25 17:34N 35°27' E 139°43'0 0.0
2014-Oct-25 16:33N 35°27' E 139°43'0 0.0
2014-Oct-25 15:33N 35°27' E 139°43'2 1.6
2014-Oct-25 14:33N 35°26' E 139°41'1 1.2
2014-Oct-25 13:33N 35°27' E 139°42'0 0.0
2014-Oct-25 12:34N 35°27' E 139°42'1 0.7
2014-Oct-25 11:34N 35°27' E 139°43'1 0.8
2014-Oct-25 10:33N 35°28' E 139°42'0 0.0
2014-Oct-25 09:34N 35°28' E 139°42'0 0.0
2014-Oct-25 08:33N 35°28' E 139°42'1 1.1
2014-Oct-25 07:33N 35°28' E 139°41'2 1.8
2014-Oct-25 06:33N 35°27' E 139°39'0 0.0
2014-Oct-25 05:33N 35°27' E 139°39'0 0.0
2014-Oct-25 04:33N 35°27' E 139°39'0 0.0
2014-Oct-25 03:33N 35°27' E 139°39'0 0.0
2014-Oct-25 02:34N 35°27' E 139°39'0 0.0
2014-Oct-25 01:33N 35°27' E 139°39'0 0.0
2014-Oct-25 00:33N 35°27' E 139°39'0 0.0
2014-Oct-24 23:34N 35°27' E 139°39'0 0.0
2014-Oct-24 22:34N 35°27' E 139°39'0 0.0
2014-Oct-24 21:33N 35°27' E 139°39'0 0.0
2014-Oct-24 20:34N 35°27' E 139°39'0 0.0
2014-Oct-24 19:33N 35°27' E 139°39'0 0.0
2014-Oct-24 18:34N 35°27' E 139°39'0 0.0
2014-Oct-24 17:33N 35°27' E 139°39'0 0.0
2014-Oct-24 16:34N 35°27' E 139°39'0 0.0
2014-Oct-24 15:33N 35°27' E 139°39'0 0.0
2014-Oct-24 14:33N 35°27' E 139°39'0 0.0
2014-Oct-24 13:33N 35°27' E 139°39'0 0.0
2014-Oct-24 12:33N 35°27' E 139°39'0 0.0
2014-Oct-24 11:34N 35°27' E 139°39'0 0.0
2014-Oct-24 10:33N 35°27' E 139°39'0 0.0
2014-Oct-24 09:34N 35°27' E 139°39'0 0.0
2014-Oct-24 08:33N 35°27' E 139°39'0 0.0
2014-Oct-24 07:33N 35°27' E 139°39'0 0.0
2014-Oct-24 06:33N 35°27' E 139°39'0 0.0
2014-Oct-24 05:33N 35°27' E 139°39'0 0.0
2014-Oct-24 04:33N 35°27' E 139°39'0 0.0
2014-Oct-24 03:33N 35°27' E 139°39'1 0.5
2014-Oct-24 02:34N 35°27' E 139°40'3 2.8
2014-Oct-24 01:34N 35°28' E 139°43'0 0.1
2014-Oct-24 00:33N 35°28' E 139°43'1 0.7
2014-Oct-23 23:33N 35°27' E 139°43'1 1.3
2014-Oct-23 22:33N 35°27' E 139°41'2 2.1
2014-Oct-23 21:33N 35°25' E 139°43'3 3.4
2014-Oct-23 20:33N 35°27' E 139°39'0 0.0
2014-Oct-23 19:33N 35°27' E 139°39'0 0.0
2014-Oct-23 18:34N 35°27' E 139°39'0 0.0
2014-Oct-23 17:33N 35°27' E 139°39'0 0.0
2014-Oct-23 16:34N 35°27' E 139°39'0 0.0
2014-Oct-23 15:33N 35°27' E 139°39'0 0.0
2014-Oct-23 14:34N 35°27' E 139°39'0 0.0
2014-Oct-23 13:33N 35°27' E 139°39'0 0.0
2014-Oct-23 12:34N 35°27' E 139°39'0 0.0
2014-Oct-23 11:33N 35°27' E 139°39'0 0.0
2014-Oct-23 10:33N 35°27' E 139°39'0 0.0
2014-Oct-23 09:34N 35°27' E 139°39'1 0.6
2014-Oct-23 08:34N 35°27' E 139°40'3 3.4
2014-Oct-23 07:33N 35°24' E 139°41'1 1.2
2014-Oct-23 06:33N 35°23' E 139°40'0 0.0
2014-Oct-23 05:33N 35°23' E 139°40'0 0.2
2014-Oct-23 04:33N 35°24' E 139°40'0 0.3
2014-Oct-23 03:34N 35°24' E 139°39'0 0.0
2014-Oct-23 02:33N 35°24' E 139°40'0 0.0
2014-Oct-23 01:34N 35°24' E 139°40'0 0.0
2014-Oct-23 00:33N 35°24' E 139°39'3 3.3
2014-Oct-22 23:34N 35°27' E 139°41'1 1.1
2014-Oct-22 22:34N 35°27' E 139°40'0 0.0
2014-Oct-22 21:33N 35°27' E 139°40'0 0.0
2014-Oct-22 20:33N 35°27' E 139°40'0 0.0
2014-Oct-22 19:33N 35°27' E 139°40'0 0.0
2014-Oct-22 18:33N 35°27' E 139°40'0 0.0
2014-Oct-22 17:33N 35°27' E 139°40'0 0.0
2014-Oct-22 16:34N 35°27' E 139°40'0 0.0
2014-Oct-22 15:34N 35°27' E 139°40'0 0.0
2014-Oct-22 14:33N 35°27' E 139°40'0 0.0
2014-Oct-22 13:33N 35°27' E 139°40'0 0.0
2014-Oct-22 12:33N 35°27' E 139°40'0 0.0
2014-Oct-22 11:33N 35°27' E 139°40'0 0.0
2014-Oct-22 10:33N 35°27' E 139°40'0 0.0
2014-Oct-22 09:33N 35°27' E 139°40'0 0.0
2014-Oct-22 08:34N 35°27' E 139°40'  

Dump ship's entire track history